Time;durP1;ratioP1;P1;durP2;ratioP2;P2;SDS_P1;SDS_P2;PMS_P1;PMS_P2;Temp;Humidity;BMP_temperature;BMP_pressure;BME280_temperature;BME280_humidity;BME280_pressure;Samples;Min_cycle;Max_cycle;Signal;HPM_P1;HPM_P2
2024/01/04 00:00:42;;;;;;;580.95;286.02;;;;;;;9.97;100.00;96159.38;5050817;28;20048;-58
2024/01/04 00:03:07;;;;;;;504.35;325.17;;;;;;;10.31;100.00;96154.03;5058327;28;20162;-57
2024/01/04 00:05:32;;;;;;;487.17;302.00;;;;;;;10.19;100.00;96163.91;5056933;28;20112;-59
2024/01/04 00:07:58;;;;;;;563.50;309.45;;;;;;;10.82;100.00;96160.19;5056747;28;20450;-58
2024/01/04 00:10:23;;;;;;;533.45;279.50;;;;;;;10.14;100.00;96160.59;5055783;28;20606;-58
2024/01/04 00:12:49;;;;;;;619.25;321.77;;;;;;;9.73;100.00;96164.38;5053325;28;20025;-56
2024/01/04 00:15:14;;;;;;;520.03;244.88;;;;;;;10.33;100.00;96166.06;5056099;28;20107;-59
2024/01/04 00:17:40;;;;;;;571.08;441.70;;;;;;;10.59;100.00;96156.59;5055818;28;20252;-56
2024/01/04 00:20:06;;;;;;;480.25;253.23;;;;;;;9.66;100.00;96160.28;5021289;28;20066;-57
2024/01/04 00:22:32;;;;;;;468.75;205.90;;;;;;;9.89;100.00;96151.81;5055579;28;20044;-57
2024/01/04 00:24:57;;;;;;;613.00;248.35;;;;;;;9.83;100.00;96166.72;5054641;28;20381;-56
2024/01/04 00:27:22;;;;;;;495.80;238.20;;;;;;;10.13;100.00;96153.69;5056837;28;20036;-57
2024/01/04 00:29:48;;;;;;;532.60;226.50;;;;;;;10.03;100.00;96153.13;5056658;28;20048;-58
2024/01/04 00:32:13;;;;;;;540.55;327.17;;;;;;;9.97;100.00;96153.31;5057032;28;20032;-58
2024/01/04 00:34:38;;;;;;;547.13;257.50;;;;;;;9.49;100.00;96156.41;5056808;28;20027;-58
2024/01/04 00:37:04;;;;;;;537.83;304.85;;;;;;;10.86;100.00;96150.50;5054413;28;20123;-56
2024/01/04 00:39:30;;;;;;;629.20;387.48;;;;;;;10.33;100.00;96157.41;5055565;28;20028;-58
2024/01/04 00:41:56;;;;;;;605.85;307.58;;;;;;;10.58;100.00;96164.44;5055066;28;20043;-58
2024/01/04 00:44:21;;;;;;;525.13;235.98;;;;;;;10.28;100.00;96154.94;5057235;28;20056;-57
2024/01/04 00:46:47;;;;;;;659.95;293.08;;;;;;;10.64;100.00;96152.09;5053241;28;20130;-55
2024/01/04 00:49:12;;;;;;;591.05;383.48;;;;;;;10.45;100.00;96151.00;5056413;28;20111;-58
2024/01/04 00:51:37;;;;;;;506.25;264.42;;;;;;;10.19;100.00;96166.50;5053495;28;20139;-58
2024/01/04 00:54:03;;;;;;;595.40;393.05;;;;;;;10.99;100.00;96161.38;5054641;28;20122;-57
2024/01/04 00:56:33;;;;;;;445.13;246.68;;;;;;;10.51;100.00;96169.84;5054040;28;20473;-56
2024/01/04 00:59:02;;;;;;;633.72;237.45;;;;;;;10.87;100.00;96168.66;5055371;28;20070;-57
2024/01/04 01:01:29;;;;;;;434.17;191.75;;;;;;;10.50;100.00;96175.94;5053336;28;20098;-58
2024/01/04 01:03:54;;;;;;;578.38;212.75;;;;;;;10.48;100.00;96175.16;5053195;28;20378;-57
2024/01/04 01:06:20;;;;;;;607.88;353.85;;;;;;;10.07;100.00;96179.84;5053637;28;20138;-59
2024/01/04 01:08:46;;;;;;;521.15;230.05;;;;;;;10.28;100.00;96189.56;5051371;28;20031;-58
2024/01/04 01:11:11;;;;;;;570.20;332.25;;;;;;;11.17;100.00;96188.50;5050883;28;20033;-58
2024/01/04 01:13:36;;;;;;;452.35;188.32;;;;;;;10.68;100.00;96197.03;5053799;28;20056;-57
2024/01/04 01:16:02;;;;;;;659.97;310.17;;;;;;;10.35;100.00;96192.84;5050799;28;20107;-56
2024/01/04 01:18:28;;;;;;;488.50;223.13;;;;;;;10.49;100.00;96197.63;5052444;28;20055;-58
2024/01/04 01:20:57;;;;;;;643.85;322.13;;;;;;;10.49;100.00;96200.22;5049881;28;20251;-57
2024/01/04 01:23:23;;;;;;;557.50;305.60;;;;;;;10.42;100.00;96191.75;5052047;28;20097;-58
2024/01/04 01:25:48;;;;;;;664.58;399.52;;;;;;;10.30;100.00;96210.31;5052236;28;20439;-56
2024/01/04 01:28:13;;;;;;;574.40;366.20;;;;;;;10.25;100.00;96207.84;5053333;28;20039;-56
2024/01/04 01:30:39;;;;;;;473.52;261.67;;;;;;;10.51;100.00;96214.00;5052224;28;20044;-56
2024/01/04 01:33:04;;;;;;;532.58;217.18;;;;;;;10.14;100.00;96210.78;5052871;28;20029;-58
2024/01/04 01:35:29;;;;;;;469.75;210.90;;;;;;;9.93;100.00;96211.41;5055885;28;20048;-58
2024/01/04 01:37:55;;;;;;;592.15;234.20;;;;;;;9.50;100.00;96202.22;5057099;28;20020;-55
2024/01/04 01:40:21;;;;;;;471.65;179.02;;;;;;;9.58;100.00;96219.34;5056007;28;20244;-57
2024/01/04 01:42:47;;;;;;;427.85;177.80;;;;;;;9.66;100.00;96204.41;5053031;28;20071;-57
2024/01/04 01:45:13;;;;;;;489.85;247.02;;;;;;;9.67;100.00;96210.44;5054506;28;20574;-56
2024/01/04 01:47:40;;;;;;;502.50;223.27;;;;;;;9.57;100.00;96212.47;5056175;28;20024;-56
2024/01/04 01:50:07;;;;;;;531.00;350.42;;;;;;;9.52;100.00;96209.97;5054283;28;20143;-58
2024/01/04 01:52:34;;;;;;;468.17;237.65;;;;;;;9.40;100.00;96208.59;5058536;28;20118;-57
2024/01/04 01:55:00;;;;;;;593.75;260.35;;;;;;;9.33;100.00;96201.84;5054152;28;20032;-56
2024/01/04 01:57:27;;;;;;;505.98;255.07;;;;;;;8.82;100.00;96204.88;5055119;28;20043;-58
2024/01/04 01:59:53;;;;;;;603.88;226.32;;;;;;;9.28;100.00;96196.78;5054836;28;20032;-56
2024/01/04 02:02:18;;;;;;;542.25;207.23;;;;;;;9.22;100.00;96208.19;5035865;28;20301;-55
2024/01/04 02:04:44;;;;;;;515.38;195.50;;;;;;;10.02;100.00;96199.03;5056861;28;20048;-55
2024/01/04 02:07:09;;;;;;;506.27;214.43;;;;;;;9.76;100.00;96202.38;5053547;28;20037;-56
2024/01/04 02:09:35;;;;;;;661.75;344.17;;;;;;;9.36;100.00;96199.19;5054791;28;20032;-56
2024/01/04 02:12:07;;;;;;;528.90;184.60;;;;;;;9.67;100.00;96187.94;5054318;28;20071;-56
2024/01/04 02:14:34;;;;;;;479.15;245.30;;;;;;;9.33;100.00;96197.53;5054932;28;20060;-56
2024/01/04 02:16:59;;;;;;;560.17;212.45;;;;;;;9.33;100.00;96201.84;5034291;28;20650;-57
2024/01/04 02:19:27;;;;;;;536.88;186.80;;;;;;;8.92;100.00;96202.91;5054636;28;20499;-58
2024/01/04 02:21:52;;;;;;;647.15;294.33;;;;;;;9.54;100.00;96202.16;5053707;28;20039;-57
2024/01/04 02:24:17;;;;;;;553.20;304.92;;;;;;;9.60;100.00;96204.56;5054536;28;20028;-57
2024/01/04 02:26:43;;;;;;;461.48;202.20;;;;;;;9.03;100.00;96214.75;5054715;28;20098;-56
2024/01/04 02:29:08;;;;;;;524.83;281.92;;;;;;;9.46;100.00;96207.53;5052460;28;20134;-59
2024/01/04 02:31:33;;;;;;;480.75;251.45;;;;;;;9.57;100.00;96208.09;5052305;28;20062;-61
2024/01/04 02:33:59;;;;;;;659.70;329.02;;;;;;;9.50;100.00;96220.41;5053665;28;20036;-55
2024/01/04 02:36:25;;;;;;;489.60;264.83;;;;;;;9.84;100.00;96204.78;5036110;28;20353;-58
2024/01/04 02:38:50;;;;;;;517.22;283.65;;;;;;;9.41;100.00;96217.19;5053975;28;20032;-58
2024/01/04 02:41:15;;;;;;;539.03;303.30;;;;;;;9.31;100.00;96222.63;5054434;28;20122;-56
2024/01/04 02:43:41;;;;;;;520.70;292.63;;;;;;;9.46;100.00;96233.47;5054709;28;20482;-57
2024/01/04 02:46:06;;;;;;;528.47;227.68;;;;;;;9.42;100.00;96230.13;5053964;28;20535;-57
2024/01/04 02:48:31;;;;;;;567.38;382.50;;;;;;;9.17;100.00;96233.38;5056454;28;20107;-55
2024/01/04 02:50:57;;;;;;;612.05;274.08;;;;;;;9.20;100.00;96233.28;5033446;28;20070;-56
2024/01/04 02:53:22;;;;;;;652.55;454.80;;;;;;;9.15;100.00;96235.16;5055407;28;20028;-57
2024/01/04 02:55:47;;;;;;;554.28;321.92;;;;;;;9.11;100.00;96243.91;5054814;28;20098;-57
2024/01/04 02:58:12;;;;;;;551.95;315.88;;;;;;;8.91;100.00;96234.88;5053767;28;20432;-55
2024/01/04 03:00:38;;;;;;;436.35;181.77;;;;;;;8.95;100.00;96246.88;5054083;28;20066;-56
2024/01/04 03:03:04;;;;;;;563.47;297.10;;;;;;;9.18;100.00;96235.09;5054036;28;20055;-55
2024/01/04 03:05:29;;;;;;;478.10;230.18;;;;;;;9.44;100.00;96241.34;5053512;28;20040;-56
2024/01/04 03:07:54;;;;;;;612.60;309.50;;;;;;;9.48;100.00;96247.28;5053569;28;20024;-57
2024/01/04 03:10:19;;;;;;;449.60;184.38;;;;;;;8.80;100.00;96249.88;5054405;28;20069;-56
2024/01/04 03:12:45;;;;;;;463.48;204.52;;;;;;;8.86;100.00;96252.31;5056136;28;20343;-55
2024/01/04 03:15:10;;;;;;;479.23;227.60;;;;;;;8.99;100.00;96256.28;5052733;28;20357;-57
2024/01/04 03:17:36;;;;;;;523.20;284.08;;;;;;;8.97;100.00;96259.81;5054375;28;20392;-56
2024/01/04 03:20:01;;;;;;;551.67;187.93;;;;;;;9.17;100.00;96264.50;5053038;28;20033;-57
2024/01/04 03:22:26;;;;;;;510.08;219.65;;;;;;;8.79;100.00;96269.75;5053524;28;20033;-56
2024/01/04 03:24:52;;;;;;;548.20;203.77;;;;;;;8.72;100.00;96269.03;5052310;28;20032;-56
2024/01/04 03:27:17;;;;;;;483.70;192.02;;;;;;;8.52;100.00;96268.63;5053641;28;20409;-57
2024/01/04 03:29:43;;;;;;;474.10;200.93;;;;;;;8.31;100.00;96275.97;5053527;28;20087;-55
2024/01/04 03:32:08;;;;;;;558.80;212.25;;;;;;;8.36;100.00;96274.16;5053660;28;20036;-56
2024/01/04 03:34:34;;;;;;;489.85;266.13;;;;;;;8.87;100.00;96279.91;5054931;28;20083;-55
2024/01/04 03:36:59;;;;;;;595.50;214.27;;;;;;;8.45;100.00;96280.84;5051286;28;20199;-57
2024/01/04 03:39:25;;;;;;;558.83;208.10;;;;;;;8.93;100.00;96291.91;5052217;28;20020;-55
2024/01/04 03:41:50;;;;;;;455.30;192.88;;;;;;;9.21;100.00;96292.06;5054772;28;20032;-57
2024/01/04 03:44:15;;;;;;;504.73;196.35;;;;;;;8.81;100.00;96287.88;5053420;28;20457;-57
2024/01/04 03:46:41;;;;;;;448.52;189.32;;;;;;;8.49;100.00;96292.03;5053030;28;20361;-55
2024/01/04 03:49:06;;;;;;;555.22;215.63;;;;;;;8.49;100.00;96287.69;5053253;28;20368;-55
2024/01/04 03:51:31;;;;;;;481.83;205.23;;;;;;;8.62;100.00;96297.81;5053375;28;20064;-56
2024/01/04 03:53:58;;;;;;;550.28;204.60;;;;;;;8.54;100.00;96296.22;5053054;28;20028;-57
2024/01/04 03:56:23;;;;;;;477.65;197.25;;;;;;;8.91;100.00;96285.91;5052331;28;20029;-56
2024/01/04 03:58:49;;;;;;;492.63;225.30;;;;;;;8.85;100.00;96279.13;5054667;28;20047;-57
2024/01/04 04:01:14;;;;;;;529.28;261.05;;;;;;;8.83;100.00;96278.28;5050452;28;20071;-58
2024/01/04 04:03:39;;;;;;;418.90;184.52;;;;;;;8.80;100.00;96283.56;5054528;28;20035;-58
2024/01/04 04:06:06;;;;;;;573.58;194.73;;;;;;;8.56;100.00;96283.25;5050711;28;20273;-56
2024/01/04 04:08:31;;;;;;;483.15;235.88;;;;;;;8.63;100.00;96289.13;5053020;28;20400;-57
2024/01/04 04:10:56;;;;;;;548.28;243.13;;;;;;;8.45;100.00;96297.28;5051550;28;20135;-57
2024/01/04 04:13:22;;;;;;;457.83;182.05;;;;;;;8.46;100.00;96293.78;5053094;28;20038;-58
2024/01/04 04:15:47;;;;;;;429.08;177.18;;;;;;;8.84;100.00;96296.41;5052387;28;20044;-56
2024/01/04 04:18:12;;;;;;;647.97;308.48;;;;;;;8.81;100.00;96287.88;5051028;28;20028;-57
2024/01/04 04:20:38;;;;;;;436.52;183.60;;;;;;;8.43;100.00;96304.22;5051669;28;20287;-56
2024/01/04 04:23:03;;;;;;;505.15;189.98;;;;;;;8.91;100.00;96298.88;5052751;28;20578;-57
2024/01/04 04:25:29;;;;;;;521.65;266.80;;;;;;;8.55;100.00;96287.59;5052505;28;20036;-56
2024/01/04 04:27:55;;;;;;;497.98;282.98;;;;;;;8.59;100.00;96301.31;5054026;28;20536;-57
2024/01/04 04:30:20;;;;;;;581.67;300.52;;;;;;;8.97;100.00;96301.31;5049886;28;20094;-56
2024/01/04 04:32:46;;;;;;;552.53;388.92;;;;;;;9.29;100.00;96299.66;5052243;28;20032;-62
2024/01/04 04:35:11;;;;;;;631.72;241.27;;;;;;;8.73;100.00;96296.66;5050876;28;20017;-59
2024/01/04 04:37:37;;;;;;;454.33;210.02;;;;;;;8.51;100.00;96311.84;5053383;28;20032;-57
2024/01/04 04:40:02;;;;;;;661.80;379.17;;;;;;;9.22;100.00;96309.34;5051267;28;20028;-59
2024/01/04 04:42:28;;;;;;;513.08;222.70;;;;;;;9.15;100.00;96318.16;5051696;28;20409;-57
2024/01/04 04:44:53;;;;;;;566.28;293.27;;;;;;;9.13;100.00;96327.72;5052349;28;20522;-57
2024/01/04 04:47:18;;;;;;;481.25;213.50;;;;;;;9.74;100.00;96327.06;5051485;28;20032;-56
2024/01/04 04:49:44;;;;;;;523.10;249.38;;;;;;;10.11;100.00;96316.53;5053037;28;20024;-56
2024/01/04 04:52:09;;;;;;;562.38;233.07;;;;;;;9.37;100.00;96323.69;5051050;28;20440;-57
2024/01/04 04:54:37;;;;;;;466.92;194.57;;;;;;;9.38;100.00;96335.75;5052163;28;20351;-55
2024/01/04 04:57:04;;;;;;;633.50;249.55;;;;;;;8.96;100.00;96331.59;5050375;28;20054;-55
2024/01/04 04:59:29;;;;;;;614.33;333.65;;;;;;;9.30;100.00;96329.91;5032846;28;20044;-55
2024/01/04 05:01:55;;;;;;;626.83;396.77;;;;;;;9.32;100.00;96340.25;5030873;28;20295;-56
2024/01/04 05:04:20;;;;;;;543.55;313.20;;;;;;;9.36;100.00;96339.28;5051327;28;20020;-55
2024/01/04 05:06:45;;;;;;;536.42;324.08;;;;;;;9.32;100.00;96340.25;5051473;28;20072;-57
2024/01/04 05:09:11;;;;;;;645.45;263.20;;;;;;;9.73;100.00;96335.72;5050147;28;20361;-56
2024/01/04 05:11:36;;;;;;;532.72;291.60;;;;;;;9.35;100.00;96350.53;5051699;28;20032;-56
2024/01/04 05:14:02;;;;;;;590.58;348.75;;;;;;;9.30;100.00;96349.78;5051845;28;20180;-56
2024/01/04 05:16:28;;;;;;;548.70;325.52;;;;;;;8.80;100.00;96366.53;5051730;28;20051;-55
2024/01/04 05:18:53;;;;;;;537.53;236.35;;;;;;;8.78;100.00;96353.59;5051545;28;20040;-57
2024/01/04 05:21:19;;;;;;;589.20;374.35;;;;;;;9.47;100.00;96365.78;5050444;28;20036;-55
2024/01/04 05:23:44;;;;;;;501.92;283.25;;;;;;;9.44;100.00;96367.63;5032574;28;20082;-56
2024/01/04 05:26:21;;;;;;;782.00;436.55;;;;;;;9.60;100.00;96374.13;5049041;28;20056;-57
2024/01/04 05:28:47;;;;;;;511.48;297.48;;;;;;;9.15;100.00;96379.53;5051689;28;20544;-57
2024/01/04 05:31:12;;;;;;;754.85;420.70;;;;;;;9.45;100.00;96377.97;5049630;28;20055;-59
2024/01/04 05:33:37;;;;;;;441.60;247.32;;;;;;;8.95;100.00;96383.47;5051993;28;20674;-56
2024/01/04 05:36:03;;;;;;;517.78;214.32;;;;;;;8.64;100.00;96385.00;5050038;28;20319;-56
2024/01/04 05:38:28;;;;;;;539.58;288.48;;;;;;;8.93;100.00;96390.41;5053026;28;20347;-57
2024/01/04 05:40:54;;;;;;;477.98;188.73;;;;;;;8.72;100.00;96398.63;5050376;28;20040;-57
2024/01/04 05:43:19;;;;;;;510.73;248.98;;;;;;;9.04;100.00;96406.59;5049979;28;20494;-56
2024/01/04 05:45:44;;;;;;;535.03;218.80;;;;;;;8.63;100.00;96416.13;5049867;28;20086;-58
2024/01/04 05:48:09;;;;;;;536.10;275.30;;;;;;;9.36;100.00;96417.13;5051733;28;20295;-55
2024/01/04 05:50:35;;;;;;;564.08;336.30;;;;;;;9.31;100.00;96413.78;5050528;28;20049;-58
2024/01/04 05:53:00;;;;;;;530.67;227.95;;;;;;;8.99;100.00;96427.44;5051631;28;20075;-56
2024/01/04 05:55:25;;;;;;;472.08;204.20;;;;;;;8.82;100.00;96432.13;5050448;28;20461;-57
2024/01/04 05:57:51;;;;;;;529.35;320.77;;;;;;;9.41;100.00;96433.41;5051820;28;20094;-56
2024/01/04 06:00:16;;;;;;;636.83;300.00;;;;;;;9.22;100.00;96449.41;5049244;28;20028;-56
2024/01/04 06:02:42;;;;;;;497.15;260.58;;;;;;;8.96;100.00;96445.66;5051751;28;20024;-56
2024/01/04 06:05:07;;;;;;;548.45;239.80;;;;;;;8.96;100.00;96453.44;5051712;28;20039;-56
2024/01/04 06:07:33;;;;;;;569.80;331.80;;;;;;;8.96;100.00;96458.63;5052786;28;20020;-59
2024/01/04 06:09:58;;;;;;;519.38;282.85;;;;;;;9.21;100.00;96463.25;5051874;28;20044;-57
2024/01/04 06:12:23;;;;;;;534.75;228.27;;;;;;;8.92;100.00;96475.16;5050184;28;20081;-56
2024/01/04 06:14:50;;;;;;;620.08;365.33;;;;;;;9.33;100.00;96484.63;5049712;28;20074;-57
2024/01/04 06:17:15;;;;;;;583.53;198.68;;;;;;;8.93;100.00;96486.34;5030776;28;20507;-57
2024/01/04 06:19:41;;;;;;;554.22;353.42;;;;;;;9.00;100.00;96482.75;5054299;28;20051;-58
2024/01/04 06:22:06;;;;;;;567.22;198.48;;;;;;;9.44;100.00;96484.38;5054588;28;20248;-56
2024/01/04 06:24:31;;;;;;;605.88;318.85;;;;;;;9.29;100.00;96488.19;5054885;28;20483;-57
2024/01/04 06:26:57;;;;;;;512.67;227.60;;;;;;;9.02;100.00;96498.28;5054220;28;20539;-56
2024/01/04 06:29:22;;;;;;;764.53;496.92;;;;;;;9.16;100.00;96496.22;5055014;28;20500;-56
2024/01/04 06:31:47;;;;;;;595.90;374.52;;;;;;;9.28;100.00;96500.28;5056132;28;20040;-56
2024/01/04 06:34:13;;;;;;;608.75;236.65;;;;;;;9.13;100.00;96495.47;5051136;28;20292;-59
2024/01/04 06:36:38;;;;;;;572.83;374.83;;;;;;;9.01;100.00;96502.59;5051957;28;20037;-59
2024/01/04 06:39:04;;;;;;;467.15;202.90;;;;;;;8.49;100.00;96502.72;5054924;28;20036;-56
2024/01/04 06:41:30;;;;;;;581.15;377.08;;;;;;;8.49;100.00;96520.03;5052932;28;20032;-56
2024/01/04 06:43:56;;;;;;;574.17;288.08;;;;;;;8.11;100.00;96520.69;5053601;28;20052;-59
2024/01/04 06:46:21;;;;;;;672.05;346.13;;;;;;;8.30;100.00;96515.16;5051854;28;20120;-59
2024/01/04 06:48:47;;;;;;;490.65;252.45;;;;;;;8.28;100.00;96533.31;5055616;28;20248;-56
2024/01/04 06:51:13;;;;;;;603.72;240.32;;;;;;;8.52;100.00;96532.91;5053253;28;20124;-55
2024/01/04 06:53:38;;;;;;;467.63;225.30;;;;;;;8.16;100.00;96534.41;5054255;28;20550;-57
2024/01/04 06:56:04;;;;;;;525.42;291.05;;;;;;;8.11;100.00;96531.03;5053211;28;20467;-56
2024/01/04 06:58:29;;;;;;;502.20;212.50;;;;;;;8.13;100.00;96537.03;5055209;28;20028;-57
2024/01/04 07:00:56;;;;;;;479.40;220.68;;;;;;;8.28;100.00;96550.63;5054283;28;20055;-59
2024/01/04 07:03:22;;;;;;;620.17;281.08;;;;;;;8.18;100.00;96536.97;5054751;28;20363;-58
2024/01/04 07:05:47;;;;;;;497.50;225.25;;;;;;;8.37;100.00;96540.09;5054206;28;20154;-58
2024/01/04 07:08:13;;;;;;;585.70;233.50;;;;;;;8.26;100.00;96554.94;5054415;28;20067;-56
2024/01/04 07:10:40;;;;;;;472.08;235.35;;;;;;;8.30;100.00;96560.06;5054897;28;20036;-59
2024/01/04 07:13:06;;;;;;;539.30;315.77;;;;;;;8.37;100.00;96553.03;5055210;28;20029;-57
2024/01/04 07:15:31;;;;;;;497.55;271.48;;;;;;;8.38;100.00;96553.91;5053904;28;20415;-57
2024/01/04 07:17:57;;;;;;;487.65;218.30;;;;;;;8.22;100.00;96561.94;5035500;28;20113;-57
2024/01/04 07:20:22;;;;;;;607.58;232.48;;;;;;;8.55;100.00;96562.25;5052038;28;20525;-56
2024/01/04 07:22:52;;;;;;;526.80;334.35;;;;;;;8.91;100.00;96569.34;5054889;28;20119;-59
2024/01/04 07:25:17;;;;;;;564.28;225.88;;;;;;;8.68;100.00;96568.06;5053315;28;20047;-58
2024/01/04 07:27:43;;;;;;;526.75;236.35;;;;;;;8.63;100.00;96569.88;5055542;28;20469;-59
2024/01/04 07:30:10;;;;;;;594.22;337.05;;;;;;;8.72;100.00;96572.31;5051869;28;20028;-58
2024/01/04 07:32:35;;;;;;;464.50;236.88;;;;;;;8.68;100.00;96583.59;5055060;28;20020;-57
2024/01/04 07:35:01;;;;;;;541.58;275.42;;;;;;;8.94;100.00;96582.25;5054967;28;20031;-58
2024/01/04 07:37:27;;;;;;;524.10;265.27;;;;;;;8.68;100.00;96588.78;5053306;28;20303;-59
2024/01/04 07:39:52;;;;;;;489.65;218.45;;;;;;;8.59;100.00;96588.97;5053780;28;20032;-60
2024/01/04 07:42:18;;;;;;;693.65;377.10;;;;;;;9.17;100.00;96586.13;5052902;28;20044;-57
2024/01/04 07:44:44;;;;;;;600.38;307.90;;;;;;;9.45;100.00;96595.94;5054507;28;20035;-58
2024/01/04 07:47:09;;;;;;;527.05;253.75;;;;;;;9.35;100.00;96590.09;5052729;28;20036;-58
2024/01/04 07:49:34;;;;;;;591.22;249.50;;;;;;;8.82;100.00;96606.69;5053027;28;20016;-58
2024/01/04 07:52:00;;;;;;;490.10;216.43;;;;;;;9.02;100.00;96595.06;5055047;28;20457;-58
2024/01/04 07:54:26;;;;;;;605.58;239.77;;;;;;;8.70;100.00;96601.72;5052741;28;21480;-59
2024/01/04 07:56:51;;;;;;;539.65;231.32;;;;;;;8.86;100.00;96607.47;5052319;28;20091;-56
2024/01/04 07:59:17;;;;;;;581.40;216.45;;;;;;;9.03;100.00;96608.91;5051997;28;20032;-57
2024/01/04 08:01:42;;;;;;;521.58;239.95;;;;;;;9.43;100.00;96618.47;5053586;28;20262;-59
2024/01/04 08:04:07;;;;;;;575.42;258.30;;;;;;;9.59;100.00;96613.81;5053383;28;20582;-56
2024/01/04 08:06:33;;;;;;;569.25;361.50;;;;;;;9.13;100.00;96612.19;5052626;28;20667;-56
2024/01/04 08:08:58;;;;;;;493.42;288.45;;;;;;;9.43;100.00;96618.47;5054586;28;20025;-56
2024/01/04 08:11:24;;;;;;;590.95;236.75;;;;;;;9.78;100.00;96621.19;5052065;28;20657;-55
2024/01/04 08:13:52;;;;;;;517.30;213.23;;;;;;;9.65;100.00;96636.16;5053554;28;20123;-55
2024/01/04 08:16:18;;;;;;;652.08;414.73;;;;;;;9.64;100.00;96624.94;5051089;28;20055;-54
2024/01/04 08:18:43;;;;;;;568.55;251.18;;;;;;;9.71;100.00;96623.06;5054424;28;20029;-57
2024/01/04 08:21:10;;;;;;;511.00;238.25;;;;;;;9.31;100.00;96634.31;5052076;28;20036;-57
2024/01/04 08:23:35;;;;;;;472.98;223.70;;;;;;;9.08;100.00;96635.59;5054826;28;20036;-58
2024/01/04 08:26:04;;;;;;;527.90;238.40;;;;;;;9.42;100.00;96640.13;5054165;28;20102;-56
2024/01/04 08:28:30;;;;;;;517.58;237.35;;;;;;;9.54;100.00;96643.34;5053854;28;20039;-55
2024/01/04 08:30:55;;;;;;;497.20;202.30;;;;;;;9.71;100.00;96633.47;5052374;28;20036;-56
2024/01/04 08:33:20;;;;;;;525.08;225.93;;;;;;;9.11;100.00;96638.13;5053481;28;20035;-57
2024/01/04 08:35:45;;;;;;;563.47;312.38;;;;;;;10.23;100.00;96630.56;5033804;28;20036;-55
2024/01/04 08:38:11;;;;;;;533.70;235.23;;;;;;;9.68;100.00;96645.66;5052804;28;20024;-56
2024/01/04 08:40:38;;;;;;;512.00;275.85;;;;;;;9.45;100.00;96655.63;5053533;28;20067;-56
2024/01/04 08:43:04;;;;;;;518.50;278.95;;;;;;;9.35;100.00;96649.75;5053339;28;20726;-56
2024/01/04 08:45:29;;;;;;;522.85;268.33;;;;;;;9.41;100.00;96646.19;5032849;28;20847;-55
2024/01/04 08:47:55;;;;;;;500.65;283.83;;;;;;;9.22;100.00;96646.56;5054187;28;20090;-56
2024/01/04 08:50:21;;;;;;;520.65;208.50;;;;;;;9.23;100.00;96656.06;5052461;28;20031;-57
2024/01/04 08:52:46;;;;;;;577.47;286.25;;;;;;;9.79;100.00;96655.81;5052179;28;20040;-57
2024/01/04 08:55:12;;;;;;;542.28;248.60;;;;;;;9.60;100.00;96663.97;5052289;28;20024;-59
2024/01/04 08:57:37;;;;;;;502.77;207.13;;;;;;;9.41;100.00;96661.75;5054871;28;20638;-54
2024/01/04 09:00:04;;;;;;;539.88;218.40;;;;;;;9.97;100.00;96663.19;5052865;28;20525;-54
2024/01/04 09:02:30;;;;;;;504.67;282.95;;;;;;;9.21;100.00;96665.59;5045393;28;20028;-57
2024/01/04 09:04:55;;;;;;;528.67;272.05;;;;;;;9.41;100.00;96664.38;5059137;28;20073;-58
2024/01/04 09:07:21;;;;;;;674.33;400.75;;;;;;;9.68;100.00;96664.66;5056750;28;20032;-56
2024/01/04 09:09:46;;;;;;;442.58;205.23;;;;;;;9.62;100.00;96672.59;5058052;28;20833;-55
2024/01/04 09:12:11;;;;;;;502.08;288.45;;;;;;;9.59;100.00;96681.31;5058481;28;20040;-55
2024/01/04 09:14:37;;;;;;;503.65;254.27;;;;;;;10.08;100.00;96688.06;5057567;28;20244;-54
2024/01/04 09:17:02;;;;;;;511.52;270.95;;;;;;;9.05;100.00;96690.13;5058445;28;20574;-58
2024/01/04 09:19:28;;;;;;;614.10;240.80;;;;;;;8.90;100.00;96691.25;5057090;28;20021;-56
2024/01/04 09:21:53;;;;;;;527.17;228.93;;;;;;;9.07;100.00;96693.53;5056115;28;20064;-56
2024/01/04 09:24:20;;;;;;;649.13;425.38;;;;;;;10.02;100.00;96700.31;5057589;28;20016;-55
2024/01/04 09:26:46;;;;;;;458.23;213.80;;;;;;;9.52;100.00;96716.06;5057706;28;20045;-57
2024/01/04 09:29:13;;;;;;;504.60;217.43;;;;;;;9.32;100.00;96713.84;5056058;28;20558;-55
2024/01/04 09:31:39;;;;;;;454.30;219.23;;;;;;;9.15;100.00;96721.91;5055409;28;20281;-58
2024/01/04 09:34:04;;;;;;;503.42;216.68;;;;;;;9.18;100.00;96730.53;5056207;28;20028;-55
2024/01/04 09:36:30;;;;;;;511.52;269.38;;;;;;;9.21;100.00;96729.63;5055113;28;21348;-56
2024/01/04 09:38:56;;;;;;;566.15;382.35;;;;;;;9.92;100.00;96729.97;5056894;28;20032;-57
2024/01/04 09:41:25;;;;;;;582.17;233.77;;;;;;;9.27;100.00;96744.22;5053658;28;20417;-57
2024/01/04 09:43:56;;;;;;;548.33;367.23;;;;;;;9.38;100.00;96737.06;5058065;28;20025;-55
2024/01/04 09:46:24;;;;;;;538.15;252.38;;;;;;;9.34;100.00;96746.66;5055836;28;20033;-57
2024/01/04 09:48:58;;;;;;;489.08;232.38;;;;;;;9.46;100.00;96745.56;5056764;28;20294;-54
2024/01/04 09:51:25;;;;;;;574.63;254.70;;;;;;;9.29;100.00;96750.22;5055127;28;20059;-56
2024/01/04 09:53:53;;;;;;;523.05;284.27;;;;;;;10.03;100.00;96753.97;5057438;28;20318;-55
2024/01/04 09:56:19;;;;;;;540.97;228.60;;;;;;;9.49;100.00;96757.63;5058947;28;20060;-55
2024/01/04 09:58:44;;;;;;;492.55;302.17;;;;;;;9.34;100.00;96757.03;5064746;28;20096;-60
2024/01/04 10:01:11;;;;;;;518.90;279.08;;;;;;;8.24;100.00;96769.94;5060414;28;20299;-57
2024/01/04 10:03:42;;;;;;;517.90;336.70;;;;;;;7.22;100.00;96777.16;5060212;28;20273;-58
2024/01/04 10:06:10;;;;;;;548.40;365.42;;;;;;;6.99;100.00;96775.66;5060733;28;20044;-58
2024/01/04 10:08:39;;;;;;;439.95;225.50;;;;;;;6.89;100.00;96780.91;5060596;28;20521;-60
2024/01/04 10:11:16;;;;;;;435.35;249.32;;;;;;;6.75;100.00;96782.72;5061483;28;20033;-57
2024/01/04 10:13:43;;;;;;;536.42;374.45;;;;;;;6.71;100.00;96787.06;5061882;28;20480;-59
2024/01/04 10:16:08;;;;;;;399.17;246.85;;;;;;;6.72;100.00;96793.09;5059851;28;20043;-60
2024/01/04 10:18:35;;;;;;;511.33;307.75;;;;;;;6.66;100.00;96799.16;5060515;28;20028;-58
2024/01/04 10:21:05;;;;;;;823.17;586.45;;;;;;;6.55;100.00;96783.75;5057422;28;20032;-57
2024/01/04 10:23:31;;;;;;;600.55;376.00;;;;;;;6.50;100.00;96788.09;5058992;28;20534;-57
2024/01/04 10:26:07;;;;;;;563.30;403.92;;;;;;;6.44;100.00;96788.97;5057916;28;20044;-56
2024/01/04 10:28:35;;;;;;;645.20;539.92;;;;;;;6.41;100.00;96794.16;5058497;28;20028;-59
2024/01/04 10:31:03;;;;;;;545.40;342.67;;;;;;;6.68;100.00;96794.00;5058754;28;20456;-58
2024/01/04 10:33:29;;;;;;;580.10;321.73;;;;;;;7.12;100.00;96794.47;5059238;28;20028;-57
2024/01/04 10:35:54;;;;;;;504.25;315.30;;;;;;;7.22;100.00;96797.84;5060232;28;20605;-59
2024/01/04 10:38:22;;;;;;;574.97;326.60;;;;;;;7.26;100.00;96804.72;5058510;28;20036;-57
2024/01/04 10:40:58;;;;;;;506.10;297.25;;;;;;;7.25;100.00;96808.19;5058343;28;20041;-60
2024/01/04 10:43:24;;;;;;;525.13;336.77;;;;;;;7.67;100.00;96812.94;5059903;28;20205;-59
2024/01/04 10:45:49;;;;;;;577.97;380.17;;;;;;;7.60;100.00;96809.56;5059622;28;20048;-58
2024/01/04 10:48:14;;;;;;;521.50;312.23;;;;;;;7.84;100.00;96809.31;5060332;28;20116;-60
2024/01/04 10:50:40;;;;;;;497.20;241.35;;;;;;;7.88;100.00;96813.56;5058604;28;20507;-58
2024/01/04 10:53:09;;;;;;;544.47;242.73;;;;;;;7.89;100.00;96810.97;5057317;28;20044;-57